ENOP weather

Fagerhaug Airport
Sør-Trøndelag, Norway

Public forecast

Using degrees Celsius for public forecast. Weather courtesy of forecast.io.

Closest aviation weather report (METAR) to Fagerhaug Airport

Closest report is Røros Airport, 41.5 nm (76.9 km) E. Retrieved 2019/10/20 04:20 UTC (33 minutes ago):

ENRO 200420Z AUTO 10013KT 9999NDV OVC035/// M00/M03 Q1010

Closest aviation forecast (TAF) to Fagerhaug Airport

Closest forecast is Trondheim Airport Værnes, 56.7 nm (105.0 km) NNE. Retrieved 2019-10-20 00:59 UTC (4 hours ago):

TAF ENVA 192300Z 2000/2024 09008KT 9999 FEW020 BKN050